createdAt,value
2023-03-06T00:04:08.925Z,6.70
2023-03-06T00:09:11.834Z,6.70
2023-03-06T00:14:16.485Z,6.70
2023-03-06T00:19:19.375Z,6.60
2023-03-06T00:24:22.337Z,6.60
2023-03-06T00:29:26.511Z,6.60
2023-03-06T00:34:29.392Z,6.60
2023-03-06T00:39:32.261Z,6.60
2023-03-06T00:44:36.519Z,6.60
2023-03-06T00:49:39.526Z,6.50
2023-03-06T00:54:42.593Z,6.50
2023-03-06T00:59:47.056Z,6.50
2023-03-06T01:04:49.966Z,6.50
2023-03-06T01:09:52.868Z,6.50
2023-03-06T01:14:59.187Z,6.50
2023-03-06T01:20:02.113Z,6.50
2023-03-06T01:25:05.396Z,6.50
2023-03-06T01:30:11.360Z,6.40
2023-03-06T01:35:14.930Z,6.50
2023-03-06T01:40:17.941Z,6.40
2023-03-06T01:45:58.406Z,6.30
2023-03-06T01:51:02.656Z,6.40
2023-03-06T01:56:06.627Z,6.30
2023-03-06T02:01:09.712Z,6.00
2023-03-06T02:06:19.585Z,6.20
2023-03-06T02:11:24.154Z,6.00
2023-03-06T02:16:30.489Z,6.10
2023-03-06T02:21:38.092Z,6.20
2023-03-06T02:26:46.497Z,6.30
2023-03-06T02:31:50.228Z,6.20
2023-03-06T02:36:56.671Z,6.20
2023-03-06T02:42:00.940Z,6.20
2023-03-06T02:47:07.785Z,6.20
2023-03-06T02:52:11.069Z,6.20
2023-03-06T02:57:16.781Z,6.20
2023-03-06T03:02:19.766Z,6.20
2023-03-06T03:07:22.988Z,6.30
2023-03-06T03:12:28.697Z,6.20
2023-03-06T03:17:31.675Z,6.20
2023-03-06T03:22:34.595Z,6.30
2023-03-06T03:27:38.839Z,6.30
2023-03-06T03:32:42.925Z,6.20
2023-03-06T03:37:46.265Z,6.10
2023-03-06T03:42:51.470Z,6.00
2023-03-06T03:47:55.377Z,5.80
2023-03-06T03:52:58.400Z,5.80
2023-03-06T03:58:02.754Z,6.00
2023-03-06T04:03:09.455Z,6.00
2023-03-06T04:08:16.349Z,5.90
2023-03-06T04:13:23.800Z,6.00
2023-03-06T04:18:28.496Z,6.00
2023-03-06T04:23:35.484Z,6.00
2023-03-06T04:28:40.793Z,6.00
2023-03-06T04:33:44.578Z,5.90
2023-03-06T04:38:47.796Z,6.00
2023-03-06T04:43:52.581Z,6.10
2023-03-06T04:48:55.550Z,6.10
2023-03-06T04:53:58.473Z,6.00
2023-03-06T04:59:04.141Z,6.10
2023-03-06T05:04:07.174Z,6.10
2023-03-06T05:09:10.091Z,6.30
2023-03-06T05:14:14.309Z,6.20
2023-03-06T05:19:17.233Z,6.20
2023-03-06T05:24:20.109Z,6.10
2023-03-06T05:29:24.314Z,6.20
2023-03-06T05:34:27.295Z,6.10
2023-03-06T05:39:30.290Z,6.20
2023-03-06T05:44:46.185Z,6.40
2023-03-06T05:49:49.234Z,6.10
2023-03-06T05:54:53.757Z,6.20
2023-03-06T05:59:58.010Z,6.20
2023-03-06T06:05:02.509Z,6.10
2023-03-06T06:10:06.990Z,6.00
2023-03-06T06:15:11.760Z,6.00
2023-03-06T06:20:17.296Z,6.10
2023-03-06T06:25:20.368Z,6.10
2023-03-06T06:30:25.077Z,6.10
2023-03-06T06:35:28.355Z,6.10
2023-03-06T06:40:31.277Z,6.20
2023-03-06T06:45:35.533Z,6.60
2023-03-06T06:50:39.972Z,6.40
2023-03-06T06:55:43.059Z,6.30
2023-03-06T07:00:47.330Z,6.20
2023-03-06T07:05:55.606Z,6.30
2023-03-06T07:10:58.840Z,6.30
2023-03-06T07:16:03.188Z,6.30
2023-03-06T07:21:06.617Z,6.30
2023-03-06T07:26:09.754Z,6.30
2023-03-06T07:31:14.045Z,6.30
2023-03-06T07:36:17.085Z,6.20
2023-03-06T07:41:22.535Z,6.30
2023-03-06T07:46:27.200Z,6.30
2023-03-06T07:51:30.275Z,6.40
2023-03-06T07:56:35.015Z,6.30
2023-03-06T08:01:40.295Z,6.30
2023-03-06T08:06:44.431Z,6.40
2023-03-06T08:11:47.465Z,6.50
2023-03-06T08:16:51.862Z,6.50
2023-03-06T08:21:54.763Z,6.50
2023-03-06T08:26:57.635Z,6.50
2023-03-06T08:32:01.934Z,6.50
2023-03-06T08:37:04.920Z,6.50
2023-03-06T08:42:08.231Z,6.60
2023-03-06T08:47:12.486Z,6.40
2023-03-06T08:52:16.987Z,6.40
2023-03-06T08:57:19.874Z,6.30
2023-03-06T09:02:24.111Z,6.40
2023-03-06T09:07:27.018Z,6.40
2023-03-06T09:12:32.674Z,6.50
2023-03-06T09:17:42.185Z,6.50
2023-03-06T09:22:46.639Z,6.70
2023-03-06T09:27:58.446Z,6.60
2023-03-06T09:33:06.284Z,6.70
2023-03-06T09:38:09.154Z,6.70
2023-03-06T09:43:21.982Z,6.60
2023-03-06T09:48:38.133Z,6.70
2023-03-06T09:53:56.558Z,6.70
2023-03-06T09:59:08.298Z,6.90
2023-03-06T10:04:29.287Z,7.00
2023-03-06T10:09:41.222Z,6.80
2023-03-06T10:14:48.883Z,6.90
2023-03-06T10:19:53.847Z,7.00
2023-03-06T10:24:57.587Z,7.10
2023-03-06T10:30:10.759Z,7.20
2023-03-06T10:35:19.581Z,7.20
2023-03-06T10:40:25.681Z,7.20
2023-03-06T10:45:29.949Z,7.20
2023-03-06T10:50:39.831Z,7.20
2023-03-06T10:55:53.004Z,7.40
2023-03-06T11:01:04.942Z,7.40
2023-03-06T11:06:13.364Z,7.40
2023-03-06T11:11:36.920Z,7.50
2023-03-06T11:16:40.798Z,7.50
2023-03-06T11:21:59.335Z,7.70
2023-03-06T11:27:10.267Z,7.50
2023-03-06T11:32:17.384Z,7.60
2023-03-06T11:37:40.597Z,7.60
2023-03-06T11:42:50.709Z,7.50
2023-03-06T11:48:01.707Z,7.50
2023-03-06T11:53:08.070Z,7.40
2023-03-06T11:58:36.839Z,7.30
2023-03-06T12:04:10.073Z,7.50
2023-03-06T12:09:29.930Z,7.50
2023-03-06T12:14:41.520Z,8.20
2023-03-06T12:19:55.713Z,7.90
2023-03-06T12:25:22.621Z,7.80
2023-03-06T12:30:51.746Z,7.90
2023-03-06T12:36:18.028Z,7.80
2023-03-06T12:41:35.074Z,7.80
2023-03-06T12:46:42.563Z,8.00
2023-03-06T12:51:46.970Z,8.00
2023-03-06T12:56:52.733Z,7.90
2023-03-06T13:02:20.219Z,7.80
2023-03-06T13:07:34.806Z,7.90
2023-03-06T13:12:54.251Z,7.60
2023-03-06T13:17:57.878Z,7.80
2023-03-06T13:23:15.866Z,7.70
2023-03-06T13:28:39.117Z,7.70
2023-03-06T13:34:30.609Z,7.70
2023-03-06T13:40:14.998Z,7.70
2023-03-06T13:45:24.699Z,7.40
2023-03-06T13:50:37.230Z,7.20
2023-03-06T13:55:49.579Z,6.90
2023-03-06T14:01:21.005Z,6.80
2023-03-06T14:06:50.782Z,6.70
2023-03-06T14:11:58.030Z,6.80
2023-03-06T14:17:05.265Z,7.10
2023-03-06T14:22:17.255Z,7.30
2023-03-06T14:27:20.585Z,7.20
2023-03-06T14:32:24.923Z,7.10
2023-03-06T14:37:29.079Z,7.10
2023-03-06T14:42:32.021Z,7.20
2023-03-06T14:47:37.666Z,7.10
2023-03-06T14:52:40.747Z,7.20
2023-03-06T14:57:44.243Z,7.20
2023-03-06T15:02:50.554Z,7.30
2023-03-06T15:07:56.461Z,7.30
2023-03-06T15:13:09.886Z,7.30
2023-03-06T15:18:36.142Z,7.20
2023-03-06T15:23:40.988Z,6.90
2023-03-06T15:28:43.890Z,7.30
2023-03-06T15:34:01.816Z,7.10
2023-03-06T15:39:32.229Z,7.20
2023-03-06T15:44:41.194Z,7.00
2023-03-06T15:49:45.616Z,6.90
2023-03-06T15:54:49.515Z,7.00
2023-03-06T15:59:52.989Z,7.00
2023-03-06T16:04:57.187Z,7.30
2023-03-06T16:10:00.078Z,7.20
2023-03-06T16:15:04.194Z,7.30
2023-03-06T16:20:17.429Z,7.10
2023-03-06T16:25:21.248Z,7.10
2023-03-06T16:30:25.512Z,7.00
2023-03-06T16:35:29.932Z,7.00
2023-03-06T16:40:37.599Z,7.00
2023-03-06T16:45:42.264Z,8.70
2023-03-06T16:50:46.744Z,7.80
2023-03-06T16:55:49.710Z,7.60
2023-03-06T17:00:52.666Z,7.60
2023-03-06T17:05:58.936Z,7.40
2023-03-06T17:11:01.802Z,7.50
2023-03-06T17:16:16.397Z,7.40
2023-03-06T17:21:20.796Z,7.40
2023-03-06T17:26:23.687Z,7.30
2023-03-06T17:31:28.467Z,7.40
2023-03-06T17:36:33.607Z,7.20
2023-03-06T17:41:36.497Z,7.10
2023-03-06T17:46:43.505Z,7.60
2023-03-06T17:51:47.798Z,7.20
2023-03-06T17:56:51.770Z,7.10
2023-03-06T18:01:57.225Z,7.10
2023-03-06T18:07:01.440Z,7.00
2023-03-06T18:12:04.635Z,7.00
2023-03-06T18:17:07.615Z,6.90
2023-03-06T18:22:11.844Z,6.90
2023-03-06T18:27:14.734Z,6.80
2023-03-06T18:32:17.744Z,6.90
2023-03-06T18:37:22.158Z,6.80
2023-03-06T18:42:26.208Z,6.80
2023-03-06T18:47:38.093Z,6.80
2023-03-06T18:52:42.432Z,6.60
2023-03-06T18:57:45.319Z,6.60
2023-03-06T19:02:48.265Z,6.60
2023-03-06T19:07:52.532Z,6.60
2023-03-06T19:12:55.417Z,6.60
2023-03-06T19:17:58.653Z,6.60
2023-03-06T19:23:02.885Z,6.60
2023-03-06T19:28:20.757Z,6.50
2023-03-06T19:33:23.716Z,6.60
2023-03-06T19:38:27.933Z,6.60
2023-03-06T19:43:32.958Z,6.50
2023-03-06T19:48:35.868Z,6.50
2023-03-06T19:53:41.455Z,6.40
2023-03-06T19:58:44.401Z,6.50
2023-03-06T20:03:47.607Z,6.60
2023-03-06T20:08:51.972Z,7.00
2023-03-06T20:13:55.222Z,6.80
2023-03-06T20:19:00.254Z,6.80
2023-03-06T20:24:05.133Z,6.80
2023-03-06T20:29:08.003Z,6.50
2023-03-06T20:34:11.526Z,6.60
2023-03-06T20:39:17.842Z,6.60
2023-03-06T20:44:20.825Z,6.60
2023-03-06T20:49:25.598Z,6.50
2023-03-06T20:54:31.365Z,6.50
2023-03-06T20:59:34.288Z,6.40
2023-03-06T21:04:40.831Z,6.40
2023-03-06T21:09:45.112Z,6.40
2023-03-06T21:14:48.005Z,6.40
2023-03-06T21:19:51.922Z,6.50
2023-03-06T21:24:56.102Z,6.50
2023-03-06T21:29:59.112Z,6.60
2023-03-06T21:35:02.011Z,6.60
2023-03-06T21:40:07.515Z,6.60
2023-03-06T21:45:12.023Z,6.60
2023-03-06T21:50:15.171Z,6.50
2023-03-06T21:55:19.920Z,6.50
2023-03-06T22:00:23.932Z,6.50
2023-03-06T22:05:26.852Z,6.50
2023-03-06T22:10:31.092Z,6.40
2023-03-06T22:15:33.968Z,6.50
2023-03-06T22:20:40.029Z,6.40
2023-03-06T22:25:44.273Z,6.50
2023-03-06T22:30:47.450Z,6.40
2023-03-06T22:35:50.451Z,6.40
2023-03-06T22:40:57.472Z,6.40
2023-03-06T22:46:03.101Z,6.40
2023-03-06T22:51:08.090Z,6.40
2023-03-06T22:56:14.649Z,6.30
2023-03-06T23:01:19.459Z,6.30
2023-03-06T23:06:24.693Z,6.40
2023-03-06T23:11:30.693Z,6.40
2023-03-06T23:16:52.692Z,6.30
2023-03-06T23:22:14.966Z,6.30
2023-03-06T23:27:37.924Z,6.40
2023-03-06T23:32:40.942Z,6.40
2023-03-06T23:37:43.853Z,6.40
2023-03-06T23:42:48.222Z,6.50
2023-03-06T23:47:51.079Z,6.50
2023-03-06T23:52:54.222Z,6.50
2023-03-06T23:57:58.460Z,6.50
